createdAt,value
2018-10-21T00:03:45.231Z,15.13
2018-10-21T00:08:48.526Z,10.33
2018-10-21T00:13:51.835Z,9.13
2018-10-21T00:18:55.158Z,11.43
2018-10-21T00:23:58.486Z,9.43
2018-10-21T00:29:01.823Z,10.10
2018-10-21T00:34:05.344Z,7.50
2018-10-21T00:39:10.827Z,6.77
2018-10-21T00:44:14.133Z,9.23
2018-10-21T00:49:17.458Z,8.37
2018-10-21T00:54:20.792Z,8.60
2018-10-21T00:59:24.141Z,11.93
2018-10-21T01:04:27.433Z,9.33
2018-10-21T01:09:30.727Z,6.27
2018-10-21T01:14:34.096Z,7.50
2018-10-21T01:19:37.456Z,8.03
2018-10-21T01:24:40.775Z,8.80
2018-10-21T01:29:46.542Z,8.47
2018-10-21T01:34:49.829Z,6.47
2018-10-21T01:40:57.739Z,9.40
2018-10-21T01:46:01.699Z,7.87
2018-10-21T01:51:05.098Z,7.43
2018-10-21T01:56:08.374Z,7.57
2018-10-21T02:01:11.708Z,5.90
2018-10-21T02:06:15.033Z,10.57
2018-10-21T02:11:18.332Z,7.73
2018-10-21T02:16:21.744Z,8.97
2018-10-21T02:21:25.053Z,7.73
2018-10-21T02:26:28.447Z,11.40
2018-10-21T02:31:31.852Z,8.90
2018-10-21T02:36:35.277Z,7.97
2018-10-21T02:41:50.094Z,6.73
2018-10-21T02:46:55.561Z,8.37
2018-10-21T02:52:04.326Z,10.40
2018-10-21T02:57:09.823Z,9.83
2018-10-21T03:02:13.144Z,7.97
2018-10-21T03:07:16.563Z,6.33
2018-10-21T03:12:19.898Z,7.70
2018-10-21T03:17:23.226Z,10.67
2018-10-21T03:22:26.682Z,9.93
2018-10-21T03:27:29.982Z,10.50
2018-10-21T03:32:33.267Z,9.30
2018-10-21T03:37:36.586Z,10.83
2018-10-21T03:42:39.943Z,7.67
2018-10-21T03:47:43.248Z,7.40
2018-10-21T03:52:46.645Z,11.00
2018-10-21T03:57:50.012Z,8.10
2018-10-21T04:02:53.294Z,10.73
2018-10-21T04:07:56.614Z,8.43
2018-10-21T04:13:00.122Z,9.87
2018-10-21T04:18:03.432Z,9.13
2018-10-21T04:23:06.750Z,7.13
2018-10-21T04:28:10.709Z,10.67
2018-10-21T04:33:48.438Z,8.77
2018-10-21T04:40:01.438Z,7.83
2018-10-21T04:45:06.444Z,7.17
2018-10-21T04:50:10.530Z,7.37
2018-10-21T04:55:15.119Z,8.03
2018-10-21T05:00:20.244Z,5.75
2018-10-21T05:05:23.553Z,7.43
2018-10-21T05:10:28.693Z,7.47
2018-10-21T05:15:34.130Z,13.37
2018-10-21T05:20:37.405Z,7.83
2018-10-21T05:25:40.723Z,9.70
2018-10-21T05:30:44.026Z,9.17
2018-10-21T05:35:47.326Z,9.03
2018-10-21T05:40:51.053Z,7.83
2018-10-21T05:45:54.435Z,7.33
2018-10-21T05:50:57.762Z,9.37
2018-10-21T05:56:01.195Z,9.57
2018-10-21T06:01:04.651Z,6.07
2018-10-21T06:06:07.963Z,9.30
2018-10-21T06:11:11.285Z,8.13
2018-10-21T06:16:15.049Z,7.53
2018-10-21T06:21:18.855Z,8.80
2018-10-21T06:26:22.781Z,9.97
2018-10-21T06:31:26.149Z,7.67
2018-10-21T06:36:29.560Z,7.23
2018-10-21T06:41:33.020Z,11.73
2018-10-21T06:46:36.740Z,10.50
2018-10-21T06:51:40.078Z,10.77
2018-10-21T06:56:43.543Z,8.63
2018-10-21T07:01:46.726Z,8.63
2018-10-21T07:06:50.044Z,13.13
2018-10-21T07:11:53.548Z,10.83
2018-10-21T07:16:56.954Z,14.83
2018-10-21T07:22:00.302Z,12.80
2018-10-21T07:27:03.642Z,19.63
2018-10-21T07:32:07.373Z,13.40
2018-10-21T07:37:11.455Z,13.20
2018-10-21T07:42:14.864Z,16.67
2018-10-21T07:47:18.206Z,16.17
2018-10-21T07:52:21.521Z,17.20
2018-10-21T07:57:25.136Z,18.50
2018-10-21T08:02:28.740Z,19.33
2018-10-21T08:07:43.568Z,15.80
2018-10-21T08:12:46.866Z,17.60
2018-10-21T08:17:50.374Z,19.17
2018-10-21T08:22:53.885Z,19.33
2018-10-21T08:27:57.440Z,14.83
2018-10-21T08:33:00.859Z,19.53
2018-10-21T08:38:04.326Z,20.70
2018-10-21T08:43:07.678Z,16.37
2018-10-21T08:48:11.000Z,19.27
2018-10-21T08:53:14.332Z,16.70
2018-10-21T08:58:17.946Z,18.20
2018-10-21T09:03:21.304Z,14.37
2018-10-21T09:08:24.680Z,19.87
2018-10-21T09:13:28.207Z,20.80
2018-10-21T09:18:31.517Z,17.37
2018-10-21T09:23:34.895Z,18.27
2018-10-21T09:28:38.366Z,14.30
2018-10-21T09:33:41.783Z,15.23
2018-10-21T09:38:45.310Z,13.97
2018-10-21T09:43:48.955Z,11.17
2018-10-21T10:39:31.110Z,8.40
2018-10-21T10:44:34.453Z,9.63
2018-10-21T10:49:37.778Z,9.47
2018-10-21T10:54:41.138Z,7.90
2018-10-21T10:59:44.513Z,10.10
2018-10-21T11:04:48.761Z,3.83
2018-10-21T11:09:53.230Z,10.23
2018-10-21T11:14:57.285Z,5.03
2018-10-21T11:20:01.426Z,3.50
2018-10-21T11:25:08.847Z,5.98
2018-10-21T11:30:13.019Z,5.13
2018-10-21T11:35:17.307Z,5.42
2018-10-21T11:40:20.610Z,5.33
2018-10-21T11:45:24.530Z,4.70
2018-10-21T11:50:28.465Z,5.20
2018-10-21T11:55:39.234Z,4.10
2018-10-21T12:00:43.977Z,5.08
2018-10-21T12:05:47.459Z,3.75
2018-10-21T12:10:51.126Z,4.70
2018-10-21T12:15:54.961Z,6.55
2018-10-21T12:20:58.856Z,3.08
2018-10-21T12:26:02.261Z,3.27
2018-10-21T12:31:05.821Z,3.25
2018-10-21T12:36:09.616Z,3.35
2018-10-21T12:41:13.338Z,3.77
2018-10-21T12:46:16.732Z,4.08
2018-10-21T12:51:20.300Z,3.92
2018-10-21T12:56:23.978Z,2.92
2018-10-21T13:01:27.458Z,4.65
2018-10-21T13:06:31.139Z,4.30
2018-10-21T13:11:34.474Z,3.52
2018-10-21T13:16:37.828Z,5.60
2018-10-21T13:21:41.331Z,3.20
2018-10-21T13:26:44.721Z,4.55
2018-10-21T13:31:48.485Z,4.42
2018-10-21T13:36:52.733Z,3.58
2018-10-21T13:41:56.403Z,4.75
2018-10-21T13:46:59.943Z,6.30
2018-10-21T13:52:03.553Z,2.10
2018-10-21T13:57:06.821Z,4.70
2018-10-21T14:02:10.288Z,3.55
2018-10-21T14:07:16.669Z,4.75
2018-10-21T14:12:20.110Z,3.63
2018-10-21T14:17:23.475Z,4.80
2018-10-21T14:22:26.814Z,2.98
2018-10-21T14:27:30.243Z,5.37
2018-10-21T14:32:33.798Z,2.87
2018-10-21T14:37:37.672Z,4.13
2018-10-21T14:42:41.266Z,2.13
2018-10-21T14:47:44.823Z,1.97
2018-10-21T14:52:48.780Z,3.20
2018-10-21T14:57:52.266Z,3.13
2018-10-21T15:02:55.936Z,4.17
2018-10-21T15:07:59.648Z,5.57
2018-10-21T15:13:03.724Z,3.67
2018-10-21T15:18:07.588Z,3.60
2018-10-21T15:23:11.159Z,4.33
2018-10-21T15:28:15.026Z,3.33
2018-10-21T15:33:18.373Z,7.00
2018-10-21T15:38:21.874Z,1.50
2018-10-21T15:43:25.233Z,6.13
2018-10-21T15:48:28.654Z,9.87
2018-10-21T15:53:31.950Z,5.83
2018-10-21T15:58:35.335Z,18.30
2018-10-21T16:03:38.924Z,6.97
2018-10-21T16:08:42.232Z,4.53
2018-10-21T16:13:45.679Z,4.47
2018-10-21T16:18:49.018Z,3.20
2018-10-21T16:23:52.310Z,6.73
2018-10-21T16:28:55.716Z,9.30
2018-10-21T16:33:59.090Z,12.40
2018-10-21T16:39:02.460Z,10.93
2018-10-21T16:44:05.944Z,8.37
2018-10-21T16:49:09.255Z,11.47
2018-10-21T16:54:12.714Z,11.33
2018-10-21T16:59:16.063Z,8.60
2018-10-21T17:04:19.330Z,11.17
2018-10-21T17:09:22.763Z,8.70
2018-10-21T17:14:26.665Z,10.87
2018-10-21T17:19:30.661Z,13.67
2018-10-21T17:24:34.443Z,15.50
2018-10-21T17:29:37.873Z,9.80
2018-10-21T17:34:41.598Z,12.33
2018-10-21T17:39:45.195Z,13.57
2018-10-21T17:44:49.620Z,12.73
2018-10-21T17:49:53.410Z,15.03
2018-10-21T17:54:56.888Z,12.17
2018-10-21T18:00:00.436Z,20.07
2018-10-21T18:05:04.537Z,12.67
2018-10-21T18:10:08.005Z,13.50
2018-10-21T18:15:12.228Z,12.77
2018-10-21T18:20:15.706Z,16.15
2018-10-21T18:25:19.305Z,13.93
2018-10-21T18:30:23.604Z,15.50
2018-10-21T18:35:27.083Z,13.70
2018-10-21T18:40:30.512Z,11.43
2018-10-21T18:45:33.799Z,29.93
2018-10-21T18:50:37.222Z,11.17
2018-10-21T18:55:40.811Z,10.08
2018-10-21T19:00:44.286Z,10.80
2018-10-21T19:05:47.699Z,10.27
2018-10-21T19:10:51.076Z,12.03
2018-10-21T19:15:54.586Z,10.80
2018-10-21T19:20:57.958Z,10.90
2018-10-21T19:26:01.371Z,10.97
2018-10-21T19:31:04.727Z,9.80
2018-10-21T19:36:08.063Z,9.83
2018-10-21T19:41:11.446Z,10.70
2018-10-21T19:46:15.449Z,7.67
2018-10-21T19:51:18.972Z,9.27
2018-10-21T19:56:22.516Z,9.43
2018-10-21T20:01:25.934Z,12.77
2018-10-21T20:06:29.242Z,10.13
2018-10-21T20:11:32.534Z,9.67
2018-10-21T20:16:35.878Z,10.33
2018-10-21T20:21:40.142Z,9.60
2018-10-21T20:26:43.682Z,11.33
2018-10-21T20:31:47.151Z,8.80
2018-10-21T20:36:51.102Z,10.97
2018-10-21T20:41:55.267Z,6.33
2018-10-21T20:46:59.232Z,13.77
2018-10-21T20:52:02.756Z,8.27
2018-10-21T20:57:08.256Z,14.93
2018-10-21T21:02:12.767Z,10.57
2018-10-21T21:07:16.857Z,9.90
2018-10-21T21:12:20.210Z,9.47
2018-10-21T21:17:23.502Z,12.30
2018-10-21T21:22:27.022Z,9.00
2018-10-21T21:27:30.523Z,11.50
2018-10-21T21:43:49.368Z,9.63
2018-10-21T21:48:52.777Z,10.10
2018-10-21T21:53:56.115Z,8.70
2018-10-21T21:58:59.530Z,9.50
2018-10-21T22:04:02.930Z,8.83
2018-10-21T22:09:10.493Z,7.30
2018-10-21T22:14:13.777Z,6.92
2018-10-21T22:19:17.078Z,10.17
2018-10-21T22:24:20.448Z,11.53
2018-10-21T22:29:23.802Z,11.03
2018-10-21T22:34:27.134Z,8.47
2018-10-21T22:39:30.476Z,8.50
2018-10-21T22:44:33.830Z,7.77
2018-10-21T22:49:37.151Z,8.37
2018-10-21T22:54:40.469Z,7.60
2018-10-21T22:59:43.802Z,8.93
2018-10-21T23:04:47.570Z,10.27
2018-10-21T23:09:51.297Z,7.27
2018-10-21T23:14:54.668Z,6.83
2018-10-21T23:19:57.978Z,7.37
2018-10-21T23:25:01.349Z,9.33
2018-10-21T23:30:06.735Z,9.05
2018-10-21T23:35:10.039Z,7.30
2018-10-21T23:40:13.359Z,10.37
2018-10-21T23:45:16.662Z,7.78
2018-10-21T23:50:19.975Z,9.27
2018-10-21T23:55:23.264Z,11.47
